Pskov, Russia
Current Conditions -  °F | °C
As of 4:00 AM on Monday 22 Dec 2014 (Local Time) from ULOO Reporting Station
Broken Clouds Broken Clouds  
Wind Chill: 24°   Ceiling: 7000
Heat Index: 32°   Visibility: 4mi
Dew Point: 25°   Wind: 9mph
Humidity: 75%   Direction: 230°SW
Pressure: 29.47"   Gusts: NA
Location:  57.83°N, 28.33°E
Report Text: ULOO 220100Z 23004MPS P6000 SCT033 BKN070 M00/M04 Q0998 NOSIGRMK QFE744
Loading
Personal Weather Stations






























Interactive Weather Map New forecast layout! Learn more

10-Day Weather Forecast

Advertisements
Track Severe Weather on mobile